createdAt,value
2018-05-27T00:00:33.210Z,934.00
2018-05-27T00:01:33.265Z,933.96
2018-05-27T00:02:33.308Z,934.00
2018-05-27T00:03:33.342Z,933.97
2018-05-27T00:04:33.393Z,933.98
2018-05-27T00:05:33.439Z,933.98
2018-05-27T00:06:33.475Z,933.99
2018-05-27T00:07:33.532Z,933.98
2018-05-27T00:08:33.572Z,933.97
2018-05-27T00:09:33.718Z,933.98
2018-05-27T00:10:33.651Z,934.00
2018-05-27T00:11:33.701Z,933.98
2018-05-27T00:12:33.737Z,933.98
2018-05-27T00:13:33.781Z,934.00
2018-05-27T00:14:33.822Z,933.97
2018-05-27T00:15:33.869Z,934.00
2018-05-27T00:16:34.006Z,933.99
2018-05-27T00:17:33.956Z,934.02
2018-05-27T00:18:34.005Z,934.05
2018-05-27T00:19:34.040Z,934.02
2018-05-27T00:20:34.088Z,934.03
2018-05-27T00:21:34.151Z,934.01
2018-05-27T00:22:34.173Z,933.99
2018-05-27T00:23:34.223Z,933.99
2018-05-27T00:24:34.256Z,933.99
2018-05-27T00:25:34.316Z,933.99
2018-05-27T00:26:34.468Z,933.99
2018-05-27T00:27:34.399Z,934.02
2018-05-27T00:28:34.449Z,934.00
2018-05-27T00:29:34.491Z,934.00
2018-05-27T00:30:34.518Z,934.01
2018-05-27T00:31:34.565Z,934.02
2018-05-27T00:32:34.629Z,933.99
2018-05-27T00:33:34.659Z,933.99
2018-05-27T00:34:34.695Z,933.98
2018-05-27T00:35:34.739Z,933.99
2018-05-27T00:36:34.889Z,934.02
2018-05-27T00:37:34.827Z,934.04
2018-05-27T00:38:34.884Z,934.05
2018-05-27T00:39:34.934Z,934.06
2018-05-27T00:40:34.970Z,934.10
2018-05-27T00:41:35.017Z,934.08
2018-05-27T00:42:35.067Z,934.08
2018-05-27T00:43:35.090Z,934.10
2018-05-27T00:44:35.127Z,934.11
2018-05-27T00:45:35.193Z,934.13
2018-05-27T00:46:35.322Z,934.14
2018-05-27T00:47:35.281Z,934.16
2018-05-27T00:48:35.311Z,934.15
2018-05-27T00:49:35.359Z,934.13
2018-05-27T00:50:35.406Z,934.15
2018-05-27T00:51:35.434Z,934.12
2018-05-27T00:52:35.604Z,934.15
2018-05-27T00:53:35.525Z,934.15
2018-05-27T00:54:35.577Z,934.13
2018-05-27T00:55:35.609Z,934.15
2018-05-27T00:56:35.647Z,934.15
2018-05-27T00:57:35.695Z,934.11
2018-05-27T00:58:35.758Z,934.12
2018-05-27T00:59:35.779Z,934.15
2018-05-27T01:00:35.836Z,934.12
2018-05-27T01:01:35.879Z,934.10
2018-05-27T01:02:36.023Z,934.11
2018-05-27T01:03:35.963Z,934.09
2018-05-27T01:04:36.022Z,934.10
2018-05-27T01:05:36.036Z,934.10
2018-05-27T01:06:36.083Z,934.10
2018-05-27T01:07:36.132Z,934.10
2018-05-27T01:08:36.379Z,934.08
2018-05-27T01:09:36.229Z,934.08
2018-05-27T01:10:36.265Z,934.12
2018-05-27T01:11:36.311Z,934.15
2018-05-27T01:12:36.362Z,934.12
2018-05-27T01:13:36.395Z,934.15
2018-05-27T01:14:36.547Z,934.10
2018-05-27T01:15:36.468Z,934.16
2018-05-27T01:16:36.511Z,934.14
2018-05-27T01:17:36.581Z,934.16
2018-05-27T01:18:36.607Z,934.16
2018-05-27T01:19:36.646Z,934.17
2018-05-27T01:20:36.705Z,934.17
2018-05-27T01:21:36.733Z,934.21
2018-05-27T01:22:36.782Z,934.19
2018-05-27T01:23:36.813Z,934.21
2018-05-27T01:24:36.975Z,934.27
2018-05-27T01:25:36.915Z,934.28
2018-05-27T01:26:36.953Z,934.25
2018-05-27T01:27:36.986Z,934.27
2018-05-27T01:28:37.025Z,934.32
2018-05-27T01:29:37.077Z,934.29
2018-05-27T01:30:37.328Z,934.28
2018-05-27T01:31:37.174Z,934.30
2018-05-27T01:32:37.223Z,934.33
2018-05-27T01:33:37.256Z,934.29
2018-05-27T01:34:37.299Z,934.34
2018-05-27T01:35:37.448Z,934.30
2018-05-27T01:36:37.385Z,934.34
2018-05-27T01:37:37.414Z,934.30
2018-05-27T01:38:37.665Z,934.32
2018-05-27T01:39:37.511Z,934.36
2018-05-27T01:40:37.559Z,934.36
2018-05-27T01:41:37.601Z,934.39
2018-05-27T01:42:37.631Z,934.35
2018-05-27T01:43:37.683Z,934.39
2018-05-27T01:44:37.722Z,934.38
2018-05-27T01:45:37.871Z,934.39
2018-05-27T01:46:37.817Z,934.36
2018-05-27T01:47:37.850Z,934.33
2018-05-27T01:48:37.884Z,934.34
2018-05-27T01:49:37.939Z,934.33
2018-05-27T01:50:37.977Z,934.33
2018-05-27T01:51:38.015Z,934.33
2018-05-27T01:52:38.074Z,934.29
2018-05-27T01:53:38.110Z,934.33
2018-05-27T01:54:38.145Z,934.33
2018-05-27T01:55:38.206Z,934.36
2018-05-27T01:56:38.448Z,934.38
2018-05-27T01:57:38.282Z,934.39
2018-05-27T01:58:38.335Z,934.43
2018-05-27T01:59:38.368Z,934.43
2018-05-27T02:00:38.414Z,934.44
2018-05-27T02:01:38.545Z,934.39
2018-05-27T02:02:38.710Z,934.37
2018-05-27T02:03:38.594Z,934.40
2018-05-27T02:04:38.637Z,934.38
2018-05-27T02:05:38.683Z,934.33
2018-05-27T02:06:38.712Z,934.31
2018-05-27T02:07:38.964Z,934.37
2018-05-27T02:08:38.897Z,934.35
2018-05-27T02:09:38.804Z,934.40
2018-05-27T02:10:38.838Z,934.32
2018-05-27T02:11:38.898Z,934.30
2018-05-27T02:12:38.924Z,934.32
2018-05-27T02:13:39.264Z,934.31
2018-05-27T02:14:39.203Z,934.29
2018-05-27T02:15:39.105Z,934.28
2018-05-27T02:16:39.150Z,934.31
2018-05-27T02:17:39.196Z,934.28
2018-05-27T02:18:39.197Z,934.25
2018-05-27T02:19:39.425Z,934.25
2018-05-27T02:20:39.623Z,934.26
2018-05-27T02:21:39.309Z,934.28
2018-05-27T02:22:39.416Z,934.26
2018-05-27T02:23:39.389Z,934.23
2018-05-27T02:24:39.497Z,934.25
2018-05-27T02:25:39.623Z,934.26
2018-05-27T02:26:39.730Z,934.22
2018-05-27T02:27:39.613Z,934.23
2018-05-27T02:28:39.659Z,934.23
2018-05-27T02:29:39.646Z,934.29
2018-05-27T02:30:39.706Z,934.30
2018-05-27T02:31:39.983Z,934.30
2018-05-27T02:32:39.787Z,934.31
2018-05-27T02:33:39.821Z,934.32
2018-05-27T02:34:39.869Z,934.30
2018-05-27T02:35:39.899Z,934.33
2018-05-27T02:36:40.147Z,934.27
2018-05-27T02:37:40.001Z,934.26
2018-05-27T02:38:40.047Z,934.23
2018-05-27T02:39:40.073Z,934.24
2018-05-27T02:40:40.117Z,934.23
2018-05-27T02:41:40.166Z,934.22
2018-05-27T02:42:40.304Z,934.23
2018-05-27T02:43:40.264Z,934.21
2018-05-27T02:44:40.318Z,934.20
2018-05-27T02:45:40.346Z,934.16
2018-05-27T02:46:40.377Z,934.19
2018-05-27T02:47:40.624Z,934.16
2018-05-27T02:48:40.483Z,934.21
2018-05-27T02:49:40.524Z,934.16
2018-05-27T02:50:40.566Z,934.15
2018-05-27T02:51:40.610Z,934.07
2018-05-27T02:52:40.650Z,934.13
2018-05-27T02:53:40.683Z,934.08
2018-05-27T02:54:40.735Z,934.07
2018-05-27T02:55:40.767Z,934.06
2018-05-27T02:56:40.813Z,934.05
2018-05-27T02:57:41.045Z,934.09
2018-05-27T02:58:40.894Z,934.08
2018-05-27T02:59:40.942Z,934.09
2018-05-27T03:00:40.993Z,934.08
2018-05-27T03:01:41.039Z,934.08
2018-05-27T03:02:41.060Z,934.08
2018-05-27T03:03:41.130Z,934.06
2018-05-27T03:04:41.154Z,934.09
2018-05-27T03:05:41.200Z,934.05
2018-05-27T03:06:41.257Z,934.04
2018-05-27T03:07:41.482Z,934.04
2018-05-27T03:08:41.421Z,934.04
2018-05-27T03:09:41.379Z,934.08
2018-05-27T03:10:41.421Z,934.09
2018-05-27T03:11:41.462Z,934.08
2018-05-27T03:12:41.505Z,934.07
2018-05-27T03:13:41.538Z,934.08
2018-05-27T03:14:41.788Z,934.06
2018-05-27T03:15:41.639Z,934.10
2018-05-27T03:16:41.667Z,934.08
2018-05-27T03:17:41.706Z,934.08
2018-05-27T03:18:41.756Z,934.07
2018-05-27T03:19:41.908Z,934.08
2018-05-27T03:20:41.847Z,934.10
2018-05-27T03:21:41.879Z,934.08
2018-05-27T03:22:41.937Z,934.06
2018-05-27T03:23:41.972Z,934.07
2018-05-27T03:24:42.021Z,934.02
2018-05-27T03:25:42.062Z,934.03
2018-05-27T03:26:42.108Z,934.05
2018-05-27T03:27:42.148Z,934.00
2018-05-27T03:28:42.176Z,934.01
2018-05-27T03:29:42.454Z,934.02
2018-05-27T03:30:42.374Z,934.02
2018-05-27T03:31:42.314Z,934.05
2018-05-27T03:32:42.362Z,934.00
2018-05-27T03:33:42.407Z,934.01
2018-05-27T03:34:42.440Z,934.03
2018-05-27T03:35:42.487Z,933.99
2018-05-27T03:36:42.736Z,934.02
2018-05-27T03:37:42.582Z,933.98
2018-05-27T03:38:42.603Z,933.99
2018-05-27T03:39:42.672Z,934.00
2018-05-27T03:40:42.709Z,933.97
2018-05-27T03:41:42.840Z,933.97
2018-05-27T03:42:42.774Z,933.99
2018-05-27T03:43:42.838Z,933.95
2018-05-27T03:44:42.871Z,933.99
2018-05-27T03:45:42.920Z,933.95
2018-05-27T03:46:42.957Z,933.97
2018-05-27T03:47:43.003Z,933.99
2018-05-27T03:48:43.154Z,933.96
2018-05-27T03:49:43.079Z,933.98
2018-05-27T03:50:43.117Z,933.95
2018-05-27T03:51:43.178Z,933.95
2018-05-27T03:52:43.204Z,933.95
2018-05-27T03:53:43.467Z,933.96
2018-05-27T03:54:43.305Z,933.93
2018-05-27T03:55:43.333Z,933.96
2018-05-27T03:56:43.389Z,933.95
2018-05-27T03:57:43.444Z,933.95
2018-05-27T03:58:43.459Z,933.92
2018-05-27T03:59:43.720Z,933.94
2018-05-27T04:00:43.564Z,933.93
2018-05-27T04:01:43.621Z,933.94
2018-05-27T04:02:43.648Z,933.97
2018-05-27T04:03:43.682Z,933.92
2018-05-27T04:04:43.733Z,933.96
2018-05-27T04:05:43.779Z,933.96
2018-05-27T04:06:43.816Z,933.91
2018-05-27T04:07:43.903Z,933.92
2018-05-27T04:08:43.913Z,933.90
2018-05-27T04:09:44.143Z,933.90
2018-05-27T04:10:43.975Z,933.83
2018-05-27T04:11:44.035Z,933.86
2018-05-27T04:12:44.066Z,933.87
2018-05-27T04:13:44.118Z,933.89
2018-05-27T04:14:44.168Z,933.87
2018-05-27T04:15:44.205Z,933.89
2018-05-27T04:16:44.245Z,933.86
2018-05-27T04:17:44.287Z,933.90
2018-05-27T04:18:44.316Z,933.89
2018-05-27T04:19:44.563Z,933.88
2018-05-27T04:20:44.415Z,933.83
2018-05-27T04:21:44.449Z,933.88
2018-05-27T04:22:44.505Z,933.85
2018-05-27T04:23:44.529Z,933.80
2018-05-27T04:24:44.779Z,933.78
2018-05-27T04:25:44.619Z,933.80
2018-05-27T04:26:44.664Z,933.81
2018-05-27T04:27:44.703Z,933.79
2018-05-27T04:28:44.744Z,933.78
2018-05-27T04:29:44.799Z,933.80
2018-05-27T04:30:44.847Z,933.75
2018-05-27T04:31:44.891Z,933.76
2018-05-27T04:32:44.923Z,933.71
2018-05-27T04:33:44.969Z,933.75
2018-05-27T04:34:45.219Z,933.79
2018-05-27T04:35:45.259Z,933.78
2018-05-27T04:36:45.086Z,933.75
2018-05-27T04:37:45.125Z,933.75
2018-05-27T04:38:45.190Z,933.77
2018-05-27T04:39:45.222Z,933.74
2018-05-27T04:40:45.269Z,933.71
2018-05-27T04:41:45.510Z,933.74
2018-05-27T04:42:45.344Z,933.72
2018-05-27T04:43:45.388Z,933.74
2018-05-27T04:44:45.439Z,933.74
2018-05-27T04:45:45.490Z,933.72
2018-05-27T04:46:45.624Z,933.80
2018-05-27T04:47:45.552Z,933.74
2018-05-27T04:48:45.606Z,933.71
2018-05-27T04:49:45.650Z,933.72
2018-05-27T04:50:45.697Z,933.72
2018-05-27T04:51:45.723Z,933.73
2018-05-27T04:52:45.976Z,933.69
2018-05-27T04:53:45.826Z,933.71
2018-05-27T04:54:45.858Z,933.67
2018-05-27T04:55:45.902Z,933.72
2018-05-27T04:56:45.937Z,933.72
2018-05-27T04:57:45.978Z,933.68
2018-05-27T04:58:46.133Z,933.65
2018-05-27T04:59:46.081Z,933.63
2018-05-27T05:00:46.124Z,933.67
2018-05-27T05:01:46.156Z,933.65
2018-05-27T05:02:46.199Z,933.59
2018-05-27T05:03:46.246Z,933.59
2018-05-27T05:04:46.488Z,933.61
2018-05-27T05:05:46.336Z,933.61
2018-05-27T05:06:46.364Z,933.58
2018-05-27T05:07:46.423Z,933.64
2018-05-27T05:08:46.445Z,933.64
2018-05-27T05:09:46.511Z,933.61
2018-05-27T05:10:46.628Z,933.60
2018-05-27T05:11:46.574Z,933.64
2018-05-27T05:12:46.635Z,933.66
2018-05-27T05:13:46.671Z,933.68
2018-05-27T05:14:46.709Z,933.66
2018-05-27T05:15:46.753Z,933.70
2018-05-27T05:16:46.985Z,933.67
2018-05-27T05:17:46.833Z,933.66
2018-05-27T05:18:46.877Z,933.65
2018-05-27T05:19:46.927Z,933.61
2018-05-27T05:20:46.964Z,933.59
2018-05-27T05:21:47.264Z,933.56
2018-05-27T05:22:47.144Z,933.57
2018-05-27T05:23:47.107Z,933.53
2018-05-27T05:24:47.130Z,933.56
2018-05-27T05:25:47.173Z,933.59
2018-05-27T05:26:47.223Z,933.55
2018-05-27T05:27:47.265Z,933.57
2018-05-27T05:28:47.520Z,933.57
2018-05-27T05:29:47.359Z,933.54
2018-05-27T05:30:47.385Z,933.54
2018-05-27T05:31:47.424Z,933.52
2018-05-27T05:32:47.468Z,933.49
2018-05-27T05:33:47.610Z,933.54
2018-05-27T05:34:47.549Z,933.51
2018-05-27T05:35:47.618Z,933.54
2018-05-27T05:36:47.653Z,933.54
2018-05-27T05:37:47.678Z,933.51
2018-05-27T05:38:47.727Z,933.50
2018-05-27T05:39:47.773Z,933.49
2018-05-27T05:40:47.801Z,933.49
2018-05-27T05:41:47.865Z,933.46
2018-05-27T05:42:47.905Z,933.49
2018-05-27T05:43:48.146Z,933.48
2018-05-27T05:44:47.985Z,933.48
2018-05-27T05:45:48.031Z,933.44
2018-05-27T05:46:48.073Z,933.46
2018-05-27T05:47:48.117Z,933.46
2018-05-27T05:48:48.251Z,933.43
2018-05-27T05:49:48.185Z,933.41
2018-05-27T05:50:48.237Z,933.43
2018-05-27T05:51:48.278Z,933.43
2018-05-27T05:52:48.335Z,933.44
2018-05-27T05:53:48.353Z,933.39
2018-05-27T05:54:48.604Z,933.42
2018-05-27T05:55:48.450Z,933.44
2018-05-27T05:56:48.487Z,933.40
2018-05-27T05:57:48.526Z,933.36
2018-05-27T05:58:48.579Z,933.40
2018-05-27T05:59:48.617Z,933.36
2018-05-27T06:00:48.774Z,933.35
2018-05-27T06:01:48.711Z,933.32
2018-05-27T06:02:48.734Z,933.30
2018-05-27T06:03:48.782Z,933.31
2018-05-27T06:04:48.824Z,933.36
2018-05-27T06:05:48.857Z,933.33
2018-05-27T06:06:49.109Z,933.29
2018-05-27T06:07:48.955Z,933.28
2018-05-27T06:08:48.997Z,933.27
2018-05-27T06:09:49.037Z,933.30
2018-05-27T06:10:49.066Z,933.29
2018-05-27T06:11:49.139Z,933.29
2018-05-27T06:12:49.257Z,933.29
2018-05-27T06:13:49.192Z,933.33
2018-05-27T06:14:49.248Z,933.29
2018-05-27T06:15:49.282Z,933.29
2018-05-27T06:16:49.332Z,933.25
2018-05-27T06:17:49.374Z,933.29
2018-05-27T06:18:49.609Z,933.30
2018-05-27T06:19:49.443Z,933.27
2018-05-27T06:20:49.501Z,933.23
2018-05-27T06:21:49.553Z,933.22
2018-05-27T06:22:49.580Z,933.30
2018-05-27T06:23:49.623Z,933.21
2018-05-27T06:24:49.767Z,933.20
2018-05-27T06:25:49.748Z,933.23
2018-05-27T06:26:49.762Z,933.20
2018-05-27T06:27:49.795Z,933.20
2018-05-27T06:28:49.828Z,933.18
2018-05-27T06:29:49.865Z,933.24
2018-05-27T06:30:50.122Z,933.18
2018-05-27T06:31:49.952Z,933.15
2018-05-27T06:32:50.012Z,933.17
2018-05-27T06:33:50.043Z,933.22
2018-05-27T06:34:50.091Z,933.19
2018-05-27T06:35:50.130Z,933.18
2018-05-27T06:36:50.268Z,933.19
2018-05-27T06:37:50.204Z,933.24
2018-05-27T06:38:50.243Z,933.27
2018-05-27T06:39:50.311Z,933.27
2018-05-27T06:40:50.333Z,933.27
2018-05-27T06:41:50.372Z,933.28
2018-05-27T06:42:50.618Z,933.27
2018-05-27T06:43:50.463Z,933.28
2018-05-27T06:44:50.493Z,933.29
2018-05-27T06:45:50.551Z,933.26
2018-05-27T06:46:50.589Z,933.31
2018-05-27T06:47:50.735Z,933.27
2018-05-27T06:48:50.674Z,933.30
2018-05-27T06:49:50.717Z,933.27
2018-05-27T06:50:50.773Z,933.26
2018-05-27T06:51:50.804Z,933.27
2018-05-27T06:52:50.830Z,933.31
2018-05-27T06:53:51.089Z,933.27
2018-05-27T06:54:50.927Z,933.30
2018-05-27T06:55:50.965Z,933.25
2018-05-27T06:56:51.017Z,933.31
2018-05-27T06:57:51.071Z,933.27
2018-05-27T06:58:51.094Z,933.26
2018-05-27T06:59:51.224Z,933.22
2018-05-27T07:00:51.181Z,933.24
2018-05-27T07:01:51.222Z,933.20
2018-05-27T07:02:51.264Z,933.23
2018-05-27T07:03:51.303Z,933.21
2018-05-27T07:04:51.392Z,933.22
2018-05-27T07:05:51.376Z,933.21
2018-05-27T07:06:51.423Z,933.18
2018-05-27T07:07:51.469Z,933.18
2018-05-27T07:08:51.505Z,933.24
2018-05-27T07:09:51.757Z,933.19
2018-05-27T07:10:51.704Z,933.17
2018-05-27T07:11:51.638Z,933.19
2018-05-27T07:12:51.668Z,933.19
2018-05-27T07:13:51.730Z,933.19
2018-05-27T07:14:51.765Z,933.19
2018-05-27T07:15:51.800Z,933.20
2018-05-27T07:16:52.041Z,933.24
2018-05-27T07:17:51.888Z,933.24
2018-05-27T07:18:51.940Z,933.28
2018-05-27T07:19:51.969Z,933.25
2018-05-27T07:20:52.004Z,933.25
2018-05-27T07:21:52.256Z,933.25
2018-05-27T07:22:52.236Z,933.24
2018-05-27T07:23:52.160Z,933.24
2018-05-27T07:24:52.222Z,933.26
2018-05-27T07:25:52.226Z,933.22
2018-05-27T07:26:52.257Z,933.21
2018-05-27T07:27:52.502Z,933.25
2018-05-27T07:28:52.348Z,933.17
2018-05-27T07:29:52.403Z,933.21
2018-05-27T07:30:52.423Z,933.23
2018-05-27T07:31:52.468Z,933.22
2018-05-27T07:32:52.524Z,933.25
2018-05-27T07:33:52.672Z,933.24
2018-05-27T07:34:52.603Z,933.29
2018-05-27T07:35:52.644Z,933.27
2018-05-27T07:36:52.690Z,933.28
2018-05-27T07:37:52.715Z,933.27
2018-05-27T07:38:52.783Z,933.27
2018-05-27T07:39:52.818Z,933.27
2018-05-27T07:40:52.839Z,933.31
2018-05-27T07:41:52.894Z,933.25
2018-05-27T07:42:52.937Z,933.27
2018-05-27T07:43:53.181Z,933.25
2018-05-27T07:44:53.126Z,933.30
2018-05-27T07:45:53.049Z,933.30
2018-05-27T07:46:53.121Z,933.28
2018-05-27T07:47:53.138Z,933.33
2018-05-27T07:48:53.188Z,933.31
2018-05-27T07:49:53.217Z,933.33
2018-05-27T07:50:53.474Z,933.36
2018-05-27T07:51:53.296Z,933.31
2018-05-27T07:52:53.342Z,933.27
2018-05-27T07:53:53.397Z,933.29
2018-05-27T07:54:53.424Z,933.32
2018-05-27T07:55:53.573Z,933.34
2018-05-27T07:56:53.524Z,933.34
2018-05-27T07:57:53.556Z,933.33
2018-05-27T07:58:53.621Z,933.34
2018-05-27T07:59:53.640Z,933.33
2018-05-27T08:00:53.695Z,933.36
2018-05-27T08:01:53.918Z,933.35
2018-05-27T08:02:53.758Z,933.39
2018-05-27T08:03:53.821Z,933.30
2018-05-27T08:04:53.842Z,933.30
2018-05-27T08:05:53.896Z,933.34
2018-05-27T08:06:53.933Z,933.34
2018-05-27T08:07:54.066Z,933.33
2018-05-27T08:08:54.031Z,933.35
2018-05-27T08:09:54.054Z,933.40
2018-05-27T08:10:54.109Z,933.40
2018-05-27T08:11:54.145Z,933.43
2018-05-27T08:12:54.384Z,933.42
2018-05-27T08:13:54.242Z,933.42
2018-05-27T08:14:54.275Z,933.45
2018-05-27T08:15:54.301Z,933.47
2018-05-27T08:16:54.359Z,933.49
2018-05-27T08:17:54.393Z,933.45
2018-05-27T08:18:54.523Z,933.48
2018-05-27T08:19:54.508Z,933.50
2018-05-27T08:20:54.522Z,933.49
2018-05-27T08:21:54.562Z,933.54
2018-05-27T08:22:54.600Z,933.54
2018-05-27T08:23:54.831Z,933.49
2018-05-27T08:24:54.673Z,933.49
2018-05-27T08:25:54.727Z,933.52
2018-05-27T08:26:54.763Z,933.55
2018-05-27T08:27:54.814Z,933.58
2018-05-27T08:28:54.859Z,933.62
2018-05-27T08:29:54.991Z,933.57
2018-05-27T08:30:54.946Z,933.61
2018-05-27T08:31:54.970Z,933.62
2018-05-27T08:32:55.013Z,933.65
2018-05-27T08:33:55.065Z,933.66
2018-05-27T08:34:55.114Z,933.71
2018-05-27T08:35:55.336Z,933.67
2018-05-27T08:36:55.175Z,933.67
2018-05-27T08:37:55.211Z,933.71
2018-05-27T08:38:55.250Z,933.67
2018-05-27T08:39:55.301Z,933.68
2018-05-27T08:40:55.353Z,933.71
2018-05-27T08:41:55.400Z,933.70
2018-05-27T08:42:55.433Z,933.76
2018-05-27T08:43:55.471Z,933.86
2018-05-27T08:44:55.526Z,933.78
2018-05-27T08:45:55.646Z,933.85
2018-05-27T08:46:55.786Z,933.75
2018-05-27T08:47:55.645Z,933.79
2018-05-27T08:48:55.700Z,933.75
2018-05-27T08:49:55.732Z,933.84
2018-05-27T08:50:55.758Z,933.81
2018-05-27T08:51:55.797Z,933.85
2018-05-27T08:52:55.843Z,933.79
2018-05-27T08:53:55.882Z,933.82
2018-05-27T08:54:55.925Z,933.87
2018-05-27T08:55:55.989Z,933.81
2018-05-27T08:56:56.122Z,933.88
2018-05-27T08:57:56.259Z,933.84
2018-05-27T08:58:56.091Z,933.90
2018-05-27T08:59:56.143Z,933.87
2018-05-27T09:00:56.173Z,933.95
2018-05-27T09:01:56.214Z,933.90
2018-05-27T09:02:56.257Z,933.86
2018-05-27T09:03:56.407Z,933.99
2018-05-27T09:04:56.361Z,933.89
2018-05-27T09:05:56.398Z,933.90
2018-05-27T09:06:56.447Z,933.93
2018-05-27T09:07:56.470Z,933.95
2018-05-27T09:08:56.605Z,933.95
2018-05-27T09:09:56.550Z,933.95
2018-05-27T09:10:56.596Z,933.99
2018-05-27T09:11:56.631Z,934.00
2018-05-27T09:12:56.677Z,934.01
2018-05-27T09:13:56.923Z,934.02
2018-05-27T09:14:56.758Z,934.03
2018-05-27T09:15:56.795Z,934.00
2018-05-27T09:16:56.847Z,934.06
2018-05-27T09:17:56.893Z,934.07
2018-05-27T09:18:56.929Z,934.03
2018-05-27T09:19:57.062Z,934.07
2018-05-27T09:20:57.120Z,934.03
2018-05-27T09:21:57.063Z,934.06
2018-05-27T09:22:57.112Z,934.10
2018-05-27T09:23:57.141Z,934.13
2018-05-27T09:24:57.263Z,934.15
2018-05-27T09:25:57.214Z,934.26
2018-05-27T09:26:57.473Z,934.16
2018-05-27T09:27:57.302Z,934.21
2018-05-27T09:28:57.346Z,934.18
2018-05-27T09:29:57.396Z,934.21
2018-05-27T09:30:57.507Z,934.15
2018-05-27T09:31:57.611Z,934.21
2018-05-27T09:32:57.507Z,934.25
2018-05-27T09:33:57.559Z,934.21
2018-05-27T09:34:57.602Z,934.30
2018-05-27T09:35:57.633Z,934.29
2018-05-27T09:36:57.683Z,934.29
2018-05-27T09:37:57.730Z,934.28
2018-05-27T09:38:57.772Z,934.31
2018-05-27T09:39:57.800Z,934.30
2018-05-27T09:40:57.849Z,934.35
2018-05-27T09:41:58.082Z,934.38
2018-05-27T09:42:58.037Z,934.33
2018-05-27T09:43:57.965Z,934.42
2018-05-27T09:44:58.020Z,934.47
2018-05-27T09:45:58.068Z,934.47
2018-05-27T09:46:58.100Z,934.51
2018-05-27T09:47:58.147Z,934.52
2018-05-27T09:48:58.370Z,934.58
2018-05-27T09:49:58.228Z,934.54
2018-05-27T09:50:58.286Z,934.58
2018-05-27T09:51:58.310Z,934.58
2018-05-27T09:52:58.346Z,934.58
2018-05-27T09:53:58.498Z,934.58
2018-05-27T09:54:58.436Z,934.55
2018-05-27T09:55:58.466Z,934.61
2018-05-27T09:56:58.520Z,934.60
2018-05-27T09:57:58.634Z,934.65
2018-05-27T09:58:58.614Z,934.64
2018-05-27T09:59:58.903Z,934.64
2018-05-27T10:00:58.792Z,934.61
2018-05-27T10:01:58.727Z,934.63
2018-05-27T10:02:58.767Z,934.66
2018-05-27T10:03:58.814Z,934.63
2018-05-27T10:04:58.862Z,934.67
2018-05-27T10:05:58.899Z,934.69
2018-05-27T10:06:59.043Z,934.70
2018-05-27T10:07:58.977Z,934.72
2018-05-27T10:08:59.024Z,934.68
2018-05-27T10:09:59.060Z,934.69
2018-05-27T10:10:59.108Z,934.73
2018-05-27T10:11:59.342Z,934.69
2018-05-27T10:12:59.185Z,934.68
2018-05-27T10:13:59.249Z,934.68
2018-05-27T10:14:59.264Z,934.80
2018-05-27T10:15:59.310Z,934.74
2018-05-27T10:16:59.359Z,934.77
2018-05-27T10:17:59.500Z,934.77
2018-05-27T10:18:59.497Z,934.75
2018-05-27T10:19:59.485Z,934.80
2018-05-27T10:20:59.530Z,934.80
2018-05-27T10:21:59.577Z,934.79
2018-05-27T10:22:59.615Z,934.85
2018-05-27T10:23:59.862Z,934.82
2018-05-27T10:24:59.697Z,934.85
2018-05-27T10:25:59.755Z,934.85
2018-05-27T10:26:59.804Z,934.84
2018-05-27T10:27:59.813Z,934.86
2018-05-27T10:28:59.869Z,934.87
2018-05-27T10:29:59.910Z,934.91
2018-05-27T10:30:59.965Z,934.95
2018-05-27T10:31:59.986Z,934.97
2018-05-27T10:33:00.035Z,935.02
2018-05-27T10:34:00.184Z,935.05
2018-05-27T10:35:00.121Z,935.04
2018-05-27T10:36:00.168Z,935.02
2018-05-27T10:37:00.197Z,935.06
2018-05-27T10:38:00.248Z,935.08
2018-05-27T10:39:00.756Z,935.06
2018-05-27T10:40:00.324Z,935.11
2018-05-27T10:41:00.373Z,935.04
2018-05-27T10:42:00.413Z,935.08
2018-05-27T10:43:00.456Z,935.12
2018-05-27T10:44:00.506Z,935.13
2018-05-27T10:45:00.652Z,935.13
2018-05-27T10:46:00.581Z,935.14
2018-05-27T10:47:00.637Z,935.18
2018-05-27T10:48:00.662Z,935.18
2018-05-27T10:49:00.715Z,935.22
2018-05-27T10:50:00.759Z,935.23
2018-05-27T10:51:01.093Z,935.21
2018-05-27T10:52:00.855Z,935.22
2018-05-27T10:53:00.888Z,935.21
2018-05-27T10:54:00.944Z,935.25
2018-05-27T10:55:00.961Z,935.28
2018-05-27T10:56:01.017Z,935.30
2018-05-27T10:57:01.257Z,935.29
2018-05-27T10:58:01.088Z,935.34
2018-05-27T10:59:01.136Z,935.32
2018-05-27T11:00:01.267Z,935.36
2018-05-27T11:01:01.216Z,935.37
2018-05-27T11:02:01.279Z,935.36
2018-05-27T11:03:01.507Z,935.39
2018-05-27T11:04:01.364Z,935.36
2018-05-27T11:05:01.387Z,935.35
2018-05-27T11:06:01.453Z,935.40
2018-05-27T11:07:01.502Z,935.43
2018-05-27T11:08:01.527Z,935.42
2018-05-27T11:09:01.557Z,935.39
2018-05-27T11:10:01.602Z,935.47
2018-05-27T11:11:01.643Z,935.39
2018-05-27T11:12:01.687Z,935.45
2018-05-27T11:13:01.988Z,935.43
2018-05-27T11:14:01.778Z,935.47
2018-05-27T11:15:01.835Z,935.50
2018-05-27T11:16:01.877Z,935.52
2018-05-27T11:17:01.917Z,935.53
2018-05-27T11:18:01.949Z,935.53
2018-05-27T11:19:02.003Z,935.55
2018-05-27T11:20:02.042Z,935.64
2018-05-27T11:21:02.086Z,935.63
2018-05-27T11:22:02.139Z,935.67
2018-05-27T11:23:02.372Z,935.65
2018-05-27T11:24:02.314Z,935.68
2018-05-27T11:25:02.258Z,935.68
2018-05-27T11:26:02.316Z,935.66
2018-05-27T11:27:02.333Z,935.72
2018-05-27T11:28:02.392Z,935.73
2018-05-27T11:29:02.439Z,935.72
2018-05-27T11:30:02.563Z,935.76
2018-05-27T11:31:02.511Z,935.75
2018-05-27T11:32:02.566Z,935.74
2018-05-27T11:33:02.617Z,935.80
2018-05-27T11:34:02.655Z,935.79
2018-05-27T11:35:02.791Z,935.78
2018-05-27T11:36:02.738Z,935.78
2018-05-27T11:37:02.784Z,935.78
2018-05-27T11:38:02.810Z,935.80
2018-05-27T11:39:02.869Z,935.82
2018-05-27T11:40:02.900Z,935.84
2018-05-27T11:41:02.971Z,935.86
2018-05-27T11:42:02.990Z,935.81
2018-05-27T11:43:03.037Z,935.87
2018-05-27T11:44:03.091Z,935.88
2018-05-27T11:45:03.133Z,935.95
2018-05-27T11:46:04.822Z,935.98
2018-05-27T11:47:03.213Z,935.91
2018-05-27T11:48:03.277Z,935.94
2018-05-27T11:49:03.299Z,935.95
2018-05-27T11:50:03.359Z,935.94
2018-05-27T11:51:03.390Z,936.04
2018-05-27T11:52:03.442Z,936.03
2018-05-27T11:53:03.497Z,936.04
2018-05-27T11:54:03.528Z,936.05
2018-05-27T11:55:03.590Z,936.07
2018-05-27T11:56:03.610Z,936.08
2018-05-27T11:57:03.760Z,936.09
2018-05-27T11:58:03.718Z,936.13
2018-05-27T11:59:03.752Z,936.03
2018-05-27T12:00:03.805Z,936.13
2018-05-27T12:01:03.855Z,936.06
2018-05-27T12:02:04.119Z,936.05
2018-05-27T12:03:03.943Z,936.08
2018-05-27T12:04:03.998Z,936.11
2018-05-27T12:05:04.036Z,936.11
2018-05-27T12:06:04.068Z,936.11
2018-05-27T12:07:04.117Z,936.11
2018-05-27T12:08:04.261Z,936.20
2018-05-27T12:09:04.304Z,936.19
2018-05-27T12:10:04.266Z,936.22
2018-05-27T12:11:04.309Z,936.23
2018-05-27T12:12:04.350Z,936.27
2018-05-27T12:13:04.391Z,936.29
2018-05-27T12:14:04.557Z,936.28
2018-05-27T12:15:04.508Z,936.34
2018-05-27T12:16:04.556Z,936.28
2018-05-27T12:17:04.579Z,936.31
2018-05-27T12:18:04.622Z,936.34
2018-05-27T12:19:04.687Z,936.43
2018-05-27T12:20:04.933Z,936.42
2018-05-27T12:21:04.769Z,936.43
2018-05-27T12:22:04.819Z,936.48
2018-05-27T12:23:04.884Z,936.45
2018-05-27T12:24:04.953Z,936.48
2018-05-27T12:25:05.053Z,936.54
2018-05-27T12:26:05.018Z,936.56
2018-05-27T12:27:05.054Z,936.55
2018-05-27T12:28:05.098Z,936.57
2018-05-27T12:29:05.154Z,936.53